createdAt,value
2023-03-17T00:00:44.828Z,-0.13
2023-03-17T00:03:24.867Z,-0.15
2023-03-17T00:05:57.507Z,-0.16
2023-03-17T00:08:29.001Z,-0.23
2023-03-17T00:10:57.710Z,-0.23
2023-03-17T00:13:27.022Z,-0.25
2023-03-17T00:15:58.666Z,-0.26
2023-03-17T00:18:27.393Z,-0.26
2023-03-17T00:20:55.438Z,-0.40
2023-03-17T00:23:25.513Z,-0.36
2023-03-17T00:25:54.470Z,-0.44
2023-03-17T00:28:24.846Z,-0.48
2023-03-17T00:30:59.422Z,-0.44
2023-03-17T00:33:29.954Z,-0.44
2023-03-17T00:35:58.896Z,-0.44
2023-03-17T00:38:26.828Z,-0.46
2023-03-17T00:40:54.943Z,-0.48
2023-03-17T00:43:23.395Z,-0.52
2023-03-17T00:45:51.462Z,-0.42
2023-03-17T00:48:21.407Z,-0.46
2023-03-17T00:50:50.776Z,-0.36
2023-03-17T00:53:21.720Z,-0.39
2023-03-17T00:55:50.150Z,-0.45
2023-03-17T00:58:25.779Z,-0.50
2023-03-17T01:00:55.311Z,-0.54
2023-03-17T01:03:24.076Z,-0.55
2023-03-17T01:05:54.847Z,-0.68
2023-03-17T01:08:23.968Z,-0.66
2023-03-17T01:10:52.857Z,-0.73
2023-03-17T01:13:20.789Z,-0.80
2023-03-17T01:15:50.733Z,-0.83
2023-03-17T01:18:21.569Z,-0.81
2023-03-17T01:20:51.414Z,-0.80
2023-03-17T01:23:19.493Z,-0.88
2023-03-17T01:25:47.324Z,-0.75
2023-03-17T01:28:18.205Z,-0.81
2023-03-17T01:30:47.330Z,-0.83
2023-03-17T01:33:15.829Z,-0.85
2023-03-17T01:35:45.993Z,-0.95
2023-03-17T01:38:15.174Z,-0.91
2023-03-17T01:40:49.918Z,-0.94
2023-03-17T01:43:23.202Z,-1.08
2023-03-17T01:46:22.163Z,-1.05
2023-03-17T01:49:17.739Z,-1.04
2023-03-17T01:52:04.977Z,-1.05
2023-03-17T01:54:48.335Z,-1.06
2023-03-17T01:57:23.090Z,-1.09
2023-03-17T01:59:58.944Z,-1.11
2023-03-17T02:02:32.923Z,-1.11
2023-03-17T02:05:03.966Z,-1.11
2023-03-17T02:07:33.161Z,-1.12
2023-03-17T02:10:03.445Z,-1.19
2023-03-17T02:12:32.021Z,-1.22
2023-03-17T02:14:59.937Z,-1.23
2023-03-17T02:17:28.821Z,-1.24
2023-03-17T02:19:57.262Z,-1.25
2023-03-17T02:22:25.568Z,-1.30
2023-03-17T02:24:58.606Z,-1.37
2023-03-17T02:27:33.982Z,-1.38
2023-03-17T02:30:03.321Z,-1.47
2023-03-17T02:32:35.868Z,-1.40
2023-03-17T02:35:05.365Z,-1.46
2023-03-17T02:37:33.707Z,-1.54
2023-03-17T02:40:02.856Z,-1.50
2023-03-17T02:42:32.042Z,-1.53
2023-03-17T02:45:00.433Z,-1.53
2023-03-17T02:47:28.479Z,-1.53
2023-03-17T02:49:57.024Z,-1.56
2023-03-17T02:52:26.191Z,-1.62
2023-03-17T02:54:54.072Z,-1.65
2023-03-17T02:57:22.434Z,-1.56
2023-03-17T02:59:50.952Z,-1.61
2023-03-17T03:02:18.976Z,-1.69
2023-03-17T03:04:47.904Z,-1.66
2023-03-17T03:07:16.343Z,-1.70
2023-03-17T03:09:44.541Z,-1.72
2023-03-17T03:12:14.021Z,-1.72
2023-03-17T03:14:42.115Z,-1.72
2023-03-17T03:17:10.767Z,-1.73
2023-03-17T03:19:39.526Z,-1.71
2023-03-17T03:22:08.453Z,-1.78
2023-03-17T03:24:36.366Z,-1.66
2023-03-17T03:27:04.525Z,-1.63
2023-03-17T03:29:32.490Z,-1.60
2023-03-17T03:32:00.906Z,-1.68
2023-03-17T03:34:29.502Z,-1.56
2023-03-17T03:36:57.758Z,-1.54
2023-03-17T03:39:26.668Z,-1.53
2023-03-17T03:41:58.506Z,-1.54
2023-03-17T03:44:26.714Z,-1.61
2023-03-17T03:46:55.017Z,-1.57
2023-03-17T03:49:23.240Z,-1.59
2023-03-17T03:51:51.432Z,-1.66
2023-03-17T03:54:19.848Z,-1.65
2023-03-17T03:56:47.724Z,-1.64
2023-03-17T03:59:16.453Z,-1.69
2023-03-17T04:01:45.821Z,-1.67
2023-03-17T04:04:14.005Z,-1.78
2023-03-17T04:06:42.119Z,-1.95
2023-03-17T04:09:10.283Z,-2.05
2023-03-17T04:11:38.849Z,-2.02
2023-03-17T04:14:06.775Z,-2.10
2023-03-17T04:16:34.710Z,-2.07
2023-03-17T04:19:03.104Z,-2.06
2023-03-17T04:21:31.133Z,-2.07
2023-03-17T04:23:59.272Z,-2.12
2023-03-17T04:26:27.882Z,-2.08
2023-03-17T04:28:55.948Z,-2.06
2023-03-17T04:31:24.010Z,-2.15
2023-03-17T04:33:53.718Z,-2.14
2023-03-17T04:36:24.176Z,-2.12
2023-03-17T04:38:52.417Z,-2.11
2023-03-17T04:41:21.388Z,-2.12
2023-03-17T04:43:49.342Z,-2.10
2023-03-17T04:46:17.672Z,-2.14
2023-03-17T04:48:45.529Z,-2.11
2023-03-17T04:51:13.618Z,-2.19
2023-03-17T04:53:42.124Z,-2.20
2023-03-17T04:56:09.993Z,-2.25
2023-03-17T04:58:38.727Z,-2.15
2023-03-17T05:01:08.529Z,-2.10
2023-03-17T05:03:36.817Z,-2.05
2023-03-17T05:06:05.728Z,-2.03
2023-03-17T05:08:34.241Z,-2.08
2023-03-17T05:11:02.356Z,-1.99
2023-03-17T05:13:30.691Z,-1.92
2023-03-17T05:16:00.975Z,-2.37
2023-03-17T05:18:29.514Z,-1.81
2023-03-17T05:20:57.734Z,-1.76
2023-03-17T05:23:26.278Z,-1.71
2023-03-17T05:25:54.729Z,-1.71
2023-03-17T05:28:22.771Z,-1.72
2023-03-17T05:30:52.203Z,-1.58
2023-03-17T05:33:20.424Z,-1.54
2023-03-17T05:35:51.736Z,-1.50
2023-03-17T05:38:21.025Z,-1.42
2023-03-17T05:40:52.871Z,-1.33
2023-03-17T05:43:21.708Z,-1.38
2023-03-17T05:45:50.870Z,-1.36
2023-03-17T05:48:18.990Z,-1.66
2023-03-17T05:50:47.635Z,-1.34
2023-03-17T05:53:16.341Z,-1.16
2023-03-17T05:55:44.672Z,-1.19
2023-03-17T05:58:12.945Z,-1.36
2023-03-17T06:00:41.016Z,-1.24
2023-03-17T06:03:10.045Z,-0.97
2023-03-17T06:05:38.124Z,-0.67
2023-03-17T06:08:06.286Z,-0.30
2023-03-17T06:10:37.417Z,0.07
2023-03-17T06:13:05.580Z,-0.02
2023-03-17T06:16:00.049Z,0.28
2023-03-17T06:18:28.287Z,0.54
2023-03-17T06:20:56.839Z,0.63
2023-03-17T06:23:26.137Z,0.78
2023-03-17T06:25:54.545Z,0.59
2023-03-17T06:28:23.258Z,1.23
2023-03-17T06:30:51.500Z,1.23
2023-03-17T06:33:20.426Z,1.40
2023-03-17T06:35:48.639Z,1.76
2023-03-17T06:38:21.009Z,1.89
2023-03-17T06:40:52.484Z,1.65
2023-03-17T06:43:22.281Z,2.26
2023-03-17T06:45:52.618Z,2.46
2023-03-17T06:48:20.706Z,2.44
2023-03-17T06:50:49.205Z,2.58
2023-03-17T06:53:17.876Z,2.74
2023-03-17T06:55:46.918Z,2.97
2023-03-17T06:58:16.100Z,3.29
2023-03-17T07:00:45.648Z,3.83
2023-03-17T07:03:14.207Z,4.07
2023-03-17T07:05:42.792Z,3.85
2023-03-17T07:08:11.664Z,4.22
2023-03-17T07:10:43.424Z,3.96
2023-03-17T07:13:12.396Z,3.87
2023-03-17T07:15:41.138Z,4.11
2023-03-17T07:18:09.300Z,4.41
2023-03-17T07:20:38.435Z,4.47
2023-03-17T07:23:06.816Z,4.53
2023-03-17T07:25:37.017Z,4.60
2023-03-17T07:28:05.410Z,4.81
2023-03-17T07:30:34.142Z,4.88
2023-03-17T07:33:02.455Z,5.02
2023-03-17T07:35:32.062Z,5.03
2023-03-17T07:38:00.389Z,5.20
2023-03-17T07:40:28.535Z,5.26
2023-03-17T07:42:57.190Z,5.35
2023-03-17T07:45:25.415Z,5.35
2023-03-17T07:47:54.252Z,5.59
2023-03-17T07:50:22.727Z,5.82
2023-03-17T07:52:50.889Z,5.82
2023-03-17T07:55:19.069Z,5.79
2023-03-17T07:57:47.378Z,6.08
2023-03-17T08:00:17.389Z,6.32
2023-03-17T08:02:53.691Z,6.54
2023-03-17T08:05:27.651Z,7.25
2023-03-17T08:07:55.979Z,6.91
2023-03-17T08:10:24.088Z,7.05
2023-03-17T08:12:53.550Z,7.21
2023-03-17T08:15:22.168Z,7.03
2023-03-17T08:17:50.257Z,7.30
2023-03-17T08:20:20.657Z,7.38
2023-03-17T08:22:49.218Z,7.53
2023-03-17T08:25:25.523Z,7.69
2023-03-17T08:27:54.285Z,7.69
2023-03-17T08:30:22.633Z,7.49
2023-03-17T08:32:50.654Z,8.04
2023-03-17T08:35:19.843Z,9.42
2023-03-17T08:37:48.435Z,12.01
2023-03-17T08:40:19.804Z,14.05
2023-03-17T08:42:49.577Z,12.91
2023-03-17T08:45:18.538Z,15.83
2023-03-17T08:47:49.884Z,15.64
2023-03-17T08:50:25.688Z,13.67
2023-03-17T08:52:54.434Z,13.42
2023-03-17T08:55:23.027Z,14.74
2023-03-17T08:57:51.363Z,14.05
2023-03-17T09:00:21.110Z,14.63
2023-03-17T09:02:49.637Z,14.75
2023-03-17T09:05:20.854Z,15.33
2023-03-17T09:07:50.185Z,13.68
2023-03-17T09:10:22.709Z,16.43
2023-03-17T09:12:51.957Z,14.32
2023-03-17T09:15:20.154Z,14.15
2023-03-17T09:17:49.685Z,13.97
2023-03-17T09:20:19.283Z,14.03
2023-03-17T09:22:49.406Z,11.61
2023-03-17T09:25:18.701Z,11.60
2023-03-17T09:27:49.941Z,12.60
2023-03-17T09:30:18.945Z,13.79
2023-03-17T09:32:47.604Z,11.82
2023-03-17T09:35:16.106Z,12.27
2023-03-17T09:37:44.853Z,13.19
2023-03-17T09:40:22.340Z,11.43
2023-03-17T09:43:06.343Z,11.60
2023-03-17T09:45:38.943Z,11.65
2023-03-17T09:48:18.846Z,10.46
2023-03-17T09:51:02.335Z,10.37
2023-03-17T09:53:36.087Z,10.25
2023-03-17T09:56:23.568Z,9.86
2023-03-17T09:59:00.041Z,9.74
2023-03-17T10:01:28.852Z,9.47
2023-03-17T10:03:57.495Z,8.98
2023-03-17T10:06:34.942Z,9.14
2023-03-17T10:09:26.719Z,9.10
2023-03-17T10:11:59.480Z,9.54
2023-03-17T10:15:00.998Z,9.45
2023-03-17T10:17:35.109Z,9.74
2023-03-17T10:20:12.900Z,9.98
2023-03-17T10:22:48.178Z,9.98
2023-03-17T10:25:20.777Z,10.02
2023-03-17T10:28:21.052Z,10.12
2023-03-17T10:30:50.228Z,10.07
2023-03-17T10:33:18.678Z,10.19
2023-03-17T10:35:48.216Z,10.27
2023-03-17T10:38:22.185Z,10.36
2023-03-17T10:41:03.604Z,10.57
2023-03-17T10:43:39.919Z,10.58
2023-03-17T10:46:26.625Z,9.82
2023-03-17T10:49:02.668Z,10.21
2023-03-17T10:51:35.512Z,10.26
2023-03-17T10:54:10.819Z,10.18
2023-03-17T10:56:42.600Z,10.09
2023-03-17T10:59:32.543Z,10.40
2023-03-17T11:02:05.894Z,10.44
2023-03-17T11:04:41.963Z,10.34
2023-03-17T11:07:16.321Z,10.35
2023-03-17T11:09:49.714Z,10.39
2023-03-17T11:12:55.801Z,9.96
2023-03-17T11:15:24.229Z,10.16
2023-03-17T11:17:59.083Z,10.42
2023-03-17T11:20:45.477Z,10.44
2023-03-17T11:23:26.647Z,10.08
2023-03-17T11:26:07.854Z,10.20
2023-03-17T11:28:41.240Z,10.21
2023-03-17T11:31:21.538Z,9.82
2023-03-17T11:33:56.563Z,10.12
2023-03-17T11:36:34.720Z,9.89
2023-03-17T11:39:11.144Z,10.26
2023-03-17T11:41:55.959Z,10.57
2023-03-17T11:44:23.813Z,10.36
2023-03-17T11:47:23.518Z,10.53
2023-03-17T11:50:20.914Z,9.69
2023-03-17T11:53:20.840Z,10.14
2023-03-17T11:56:00.571Z,10.20
2023-03-17T11:58:28.836Z,10.17
2023-03-17T12:01:00.620Z,10.14
2023-03-17T12:03:43.518Z,10.20
2023-03-17T12:06:21.232Z,10.30
2023-03-17T12:08:56.504Z,10.20
2023-03-17T12:11:29.067Z,10.30
2023-03-17T12:14:05.012Z,10.48
2023-03-17T12:16:46.522Z,10.39
2023-03-17T12:19:30.713Z,10.10
2023-03-17T12:22:05.866Z,9.99
2023-03-17T12:24:40.522Z,10.18
2023-03-17T12:27:39.068Z,10.28
2023-03-17T12:30:20.389Z,10.32
2023-03-17T12:32:57.239Z,10.40
2023-03-17T12:35:29.865Z,9.81
2023-03-17T12:38:12.951Z,10.10
2023-03-17T12:41:13.334Z,10.16
2023-03-17T12:43:53.463Z,10.12
2023-03-17T12:46:49.335Z,10.00
2023-03-17T12:49:25.276Z,10.20
2023-03-17T12:52:12.558Z,10.31
2023-03-17T12:54:46.915Z,10.25
2023-03-17T12:57:21.682Z,10.44
2023-03-17T12:59:58.119Z,10.08
2023-03-17T13:02:29.691Z,10.33
2023-03-17T13:05:02.556Z,10.35
2023-03-17T13:07:54.150Z,10.40
2023-03-17T13:10:45.064Z,10.16
2023-03-17T13:13:21.632Z,10.40
2023-03-17T13:15:55.227Z,10.43
2023-03-17T13:18:45.042Z,10.38
2023-03-17T13:21:16.613Z,10.33
2023-03-17T13:23:53.454Z,10.24
2023-03-17T13:27:02.073Z,10.29
2023-03-17T13:29:33.196Z,10.34
2023-03-17T13:32:34.920Z,10.25
2023-03-17T13:35:20.765Z,10.06
2023-03-17T13:38:14.257Z,10.01
2023-03-17T13:41:13.792Z,10.10
2023-03-17T13:43:43.527Z,9.99
2023-03-17T13:46:44.484Z,9.95
2023-03-17T13:49:19.725Z,10.05
2023-03-17T13:52:07.366Z,10.10
2023-03-17T13:54:50.954Z,9.90
2023-03-17T13:57:26.404Z,10.09
2023-03-17T13:59:59.988Z,10.14
2023-03-17T14:02:32.831Z,9.79
2023-03-17T14:05:06.480Z,10.15
2023-03-17T14:08:05.170Z,10.18
2023-03-17T14:10:34.400Z,10.11
2023-03-17T14:13:05.739Z,10.18
2023-03-17T14:16:05.799Z,10.00
2023-03-17T14:18:36.164Z,10.03
2023-03-17T14:21:12.918Z,9.99
2023-03-17T14:23:41.353Z,9.89
2023-03-17T14:26:12.005Z,9.86
2023-03-17T14:28:39.982Z,9.84
2023-03-17T14:31:18.496Z,9.95
2023-03-17T14:33:46.795Z,10.19
2023-03-17T14:36:14.917Z,10.15
2023-03-17T14:38:54.446Z,10.10
2023-03-17T14:41:28.006Z,10.09
2023-03-17T14:44:00.408Z,10.10
2023-03-17T14:46:37.154Z,10.05
2023-03-17T14:49:15.503Z,10.09
2023-03-17T14:51:44.112Z,10.05
2023-03-17T14:54:19.567Z,10.08
2023-03-17T14:56:52.615Z,10.10
2023-03-17T14:59:26.708Z,10.10
2023-03-17T15:02:03.868Z,10.18
2023-03-17T15:04:34.334Z,10.16
2023-03-17T15:07:09.499Z,10.21
2023-03-17T15:09:40.424Z,10.19
2023-03-17T15:12:26.552Z,10.05
2023-03-17T15:15:03.968Z,9.90
2023-03-17T15:17:35.288Z,9.79
2023-03-17T15:20:15.600Z,9.84
2023-03-17T15:22:58.511Z,9.80
2023-03-17T15:25:39.456Z,9.77
2023-03-17T15:28:19.311Z,9.76
2023-03-17T15:30:52.679Z,9.67
2023-03-17T15:33:21.441Z,9.65
2023-03-17T15:35:50.611Z,9.51
2023-03-17T15:38:18.974Z,9.62
2023-03-17T15:40:47.556Z,9.58
2023-03-17T15:43:16.828Z,9.54
2023-03-17T15:45:45.441Z,9.47
2023-03-17T15:48:24.810Z,9.43
2023-03-17T15:50:55.585Z,9.34
2023-03-17T15:53:24.226Z,9.19
2023-03-17T15:55:52.124Z,9.18
2023-03-17T15:58:20.587Z,9.10
2023-03-17T16:00:53.558Z,9.00
2023-03-17T16:03:32.497Z,8.93
2023-03-17T16:06:02.212Z,8.91
2023-03-17T16:08:30.493Z,8.97
2023-03-17T16:10:58.478Z,8.83
2023-03-17T16:13:26.421Z,8.71
2023-03-17T16:15:57.778Z,8.66
2023-03-17T16:18:34.171Z,8.60
2023-03-17T16:21:04.346Z,8.60
2023-03-17T16:23:37.024Z,8.39
2023-03-17T16:26:14.825Z,8.26
2023-03-17T16:28:45.636Z,8.19
2023-03-17T16:31:31.875Z,8.27
2023-03-17T16:34:00.371Z,8.10
2023-03-17T16:36:28.681Z,7.93
2023-03-17T16:38:56.635Z,7.73
2023-03-17T16:41:27.677Z,7.58
2023-03-17T16:44:01.973Z,7.47
2023-03-17T16:46:35.113Z,7.56
2023-03-17T16:49:05.015Z,7.71
2023-03-17T16:51:33.469Z,7.37
2023-03-17T16:54:01.651Z,7.45
2023-03-17T16:56:31.732Z,7.26
2023-03-17T16:59:00.594Z,7.32
2023-03-17T17:01:29.958Z,7.13
2023-03-17T17:03:58.625Z,7.22
2023-03-17T17:06:26.405Z,7.25
2023-03-17T17:08:54.434Z,7.28
2023-03-17T17:11:23.082Z,7.02
2023-03-17T17:13:51.857Z,7.00
2023-03-17T17:16:28.499Z,6.86
2023-03-17T17:18:57.408Z,6.87
2023-03-17T17:21:26.397Z,6.90
2023-03-17T17:23:55.424Z,6.68
2023-03-17T17:26:23.625Z,6.67
2023-03-17T17:28:51.892Z,6.52
2023-03-17T17:31:20.201Z,6.38
2023-03-17T17:33:48.666Z,6.24
2023-03-17T17:36:17.496Z,6.38
2023-03-17T17:38:46.142Z,6.49
2023-03-17T17:41:14.707Z,6.37
2023-03-17T17:43:43.053Z,6.37
2023-03-17T17:46:15.579Z,6.31
2023-03-17T17:48:43.899Z,6.20
2023-03-17T17:51:12.076Z,5.96
2023-03-17T17:53:40.709Z,5.83
2023-03-17T17:56:14.850Z,5.67
2023-03-17T17:58:43.376Z,5.52
2023-03-17T18:01:14.183Z,5.54
2023-03-17T18:03:43.226Z,5.50
2023-03-17T18:06:13.234Z,5.54
2023-03-17T18:08:41.820Z,5.48
2023-03-17T18:11:10.400Z,5.31
2023-03-17T18:13:39.159Z,5.27
2023-03-17T18:16:12.695Z,5.33
2023-03-17T18:18:43.427Z,5.17
2023-03-17T18:21:12.378Z,5.19
2023-03-17T18:23:47.019Z,5.19
2023-03-17T18:26:16.753Z,5.12
2023-03-17T18:28:45.252Z,4.83
2023-03-17T18:31:18.697Z,4.90
2023-03-17T18:33:49.711Z,4.76
2023-03-17T18:36:19.976Z,4.73
2023-03-17T18:38:53.078Z,4.58
2023-03-17T18:41:21.316Z,4.72
2023-03-17T18:43:49.451Z,4.66
2023-03-17T18:46:17.711Z,4.89
2023-03-17T18:48:46.444Z,4.66
2023-03-17T18:51:15.031Z,4.81
2023-03-17T18:53:43.746Z,4.64
2023-03-17T18:56:11.826Z,4.76
2023-03-17T18:58:40.104Z,4.64
2023-03-17T19:01:08.917Z,4.61
2023-03-17T19:03:37.471Z,4.40
2023-03-17T19:06:15.663Z,4.28
2023-03-17T19:08:44.573Z,4.62
2023-03-17T19:11:16.612Z,4.61
2023-03-17T19:13:46.496Z,4.36
2023-03-17T19:16:16.847Z,4.39
2023-03-17T19:18:46.426Z,4.29
2023-03-17T19:21:14.985Z,4.41
2023-03-17T19:23:43.794Z,4.40
2023-03-17T19:26:12.121Z,4.25
2023-03-17T19:28:40.738Z,4.43
2023-03-17T19:31:09.602Z,4.47
2023-03-17T19:33:38.128Z,4.54
2023-03-17T19:36:13.429Z,4.53
2023-03-17T19:38:41.760Z,4.49
2023-03-17T19:41:10.553Z,4.46
2023-03-17T19:43:41.635Z,4.41
2023-03-17T19:46:12.020Z,4.55
2023-03-17T19:48:40.869Z,4.44
2023-03-17T19:51:09.797Z,4.42
2023-03-17T19:53:37.859Z,4.26
2023-03-17T19:56:06.565Z,4.20
2023-03-17T19:58:35.448Z,3.98
2023-03-17T20:01:04.707Z,3.90
2023-03-17T20:03:34.135Z,3.77
2023-03-17T20:06:06.155Z,3.76
2023-03-17T20:08:35.889Z,3.62
2023-03-17T20:11:05.744Z,3.62
2023-03-17T20:13:35.524Z,3.61
2023-03-17T20:16:06.054Z,3.66
2023-03-17T20:18:35.445Z,3.56
2023-03-17T20:21:08.333Z,3.40
2023-03-17T20:23:37.891Z,3.31
2023-03-17T20:26:07.066Z,3.19
2023-03-17T20:28:35.949Z,3.24
2023-03-17T20:31:04.863Z,3.29
2023-03-17T20:33:33.854Z,3.38
2023-03-17T20:36:03.391Z,3.14
2023-03-17T20:38:36.898Z,3.22
2023-03-17T20:41:11.399Z,3.15
2023-03-17T20:43:40.759Z,2.99
2023-03-17T20:46:14.932Z,3.01
2023-03-17T20:48:44.491Z,3.04
2023-03-17T20:51:16.600Z,3.21
2023-03-17T20:53:46.424Z,3.14
2023-03-17T20:56:16.969Z,3.09
2023-03-17T20:58:47.052Z,2.96
2023-03-17T21:01:20.767Z,3.02
2023-03-17T21:03:49.795Z,3.04
2023-03-17T21:06:18.734Z,3.00
2023-03-17T21:08:47.123Z,2.98
2023-03-17T21:11:18.024Z,2.86
2023-03-17T21:13:47.344Z,3.03
2023-03-17T21:16:25.112Z,2.95
2023-03-17T21:18:53.813Z,2.99
2023-03-17T21:21:23.561Z,2.81
2023-03-17T21:23:51.566Z,2.83
2023-03-17T21:26:20.778Z,2.87
2023-03-17T21:28:48.918Z,2.90
2023-03-17T21:31:17.883Z,2.72
2023-03-17T21:33:50.699Z,2.71
2023-03-17T21:36:20.967Z,2.61
2023-03-17T21:38:49.592Z,2.75
2023-03-17T21:41:32.306Z,2.65
2023-03-17T21:44:01.805Z,2.70
2023-03-17T21:46:31.793Z,2.72
2023-03-17T21:49:01.536Z,2.71
2023-03-17T21:51:30.083Z,2.72
2023-03-17T21:53:58.798Z,2.69
2023-03-17T21:56:27.586Z,2.87
2023-03-17T21:58:56.416Z,2.68
2023-03-17T22:01:24.607Z,2.57
2023-03-17T22:03:53.281Z,2.51
2023-03-17T22:06:22.125Z,2.56
2023-03-17T22:08:50.822Z,2.53
2023-03-17T22:11:19.984Z,2.59
2023-03-17T22:13:48.982Z,2.53
2023-03-17T22:16:18.433Z,2.66
2023-03-17T22:18:47.643Z,2.56
2023-03-17T22:21:15.713Z,2.58
2023-03-17T22:23:44.529Z,2.53
2023-03-17T22:26:15.614Z,2.56
2023-03-17T22:28:45.389Z,2.73
2023-03-17T22:31:25.729Z,2.53
2023-03-17T22:33:56.795Z,2.41
2023-03-17T22:36:26.456Z,2.47
2023-03-17T22:38:55.045Z,2.60
2023-03-17T22:41:26.195Z,2.64
2023-03-17T22:43:54.597Z,2.52
2023-03-17T22:46:22.811Z,2.54
2023-03-17T22:48:51.897Z,2.51
2023-03-17T22:51:22.954Z,2.53
2023-03-17T22:53:52.009Z,2.60
2023-03-17T22:56:20.846Z,2.38
2023-03-17T22:58:48.853Z,2.45
2023-03-17T23:01:18.243Z,2.43
2023-03-17T23:03:47.233Z,2.45
2023-03-17T23:06:15.329Z,2.32
2023-03-17T23:08:44.286Z,2.39
2023-03-17T23:11:18.404Z,2.38
2023-03-17T23:13:47.573Z,2.35
2023-03-17T23:16:16.394Z,2.33
2023-03-17T23:18:46.806Z,2.31
2023-03-17T23:21:22.074Z,2.39
2023-03-17T23:23:50.036Z,2.47
2023-03-17T23:26:18.165Z,2.47
2023-03-17T23:28:46.517Z,2.33
2023-03-17T23:31:16.820Z,2.33
2023-03-17T23:33:47.486Z,2.28
2023-03-17T23:36:17.175Z,2.26
2023-03-17T23:38:46.107Z,2.13
2023-03-17T23:41:14.607Z,2.19
2023-03-17T23:43:44.105Z,2.17
2023-03-17T23:46:14.009Z,2.13
2023-03-17T23:48:43.061Z,2.02
2023-03-17T23:51:12.806Z,1.89
2023-03-17T23:53:41.898Z,1.94
2023-03-17T23:56:11.578Z,1.70
2023-03-17T23:58:42.564Z,1.67
